Whale Point, California Weather observations

Data are for observation ending at time listed.
 Day   Time    Ave.   Ave.  Ave.  Vector   Max.   Stn.    Total    Solar   Ave.  
  of    of     Air    Rel.  Wind   Wind    Wind   Baro.  Precip.   Rad.    Soil  
Year   Day     Temp.  Hum.  Speed  Dir.    Gust   Pres.                    Temp. 
2014   (PST)    F      %     mph   deg.    mph     mb.     in.     W/m2     F   
------------------------------------------------------------------------------
 292    4:40   59.4    91    1.7    91      2.9   990.5    0.00       0    69.8
 292    4:50   59.6    85    4.9    33      8.3   990.5    0.00       0    69.8
 292    5:00   62.1    65    7.5    52     10.7   990.5    0.00       0    69.7
 292    5:10   64.3    52    6.4    67     10.2   990.5    0.00       0    69.6
 292    5:20   65.0    50    2.9    82      5.0   990.5    0.00       0    69.6
 292    5:30   64.8    59    2.5   159      4.5   990.5    0.00       0    69.5
 292    5:40   62.0    66    2.4    70      7.4   990.5    0.00       0    69.5
 292    5:50   66.1    48    8.3    54     11.2   990.5    0.00       0    69.5
 292    6:00   66.7    46    9.8    50     13.2   990.5    0.00       0    69.4
 292    6:10   67.3    45    8.8    46     11.4   990.5    0.00       1    69.3
 292    6:20   67.8    45    7.4    55     10.3   990.9    0.00       4    69.3
 292    6:30   66.5    51    4.3   119      8.6   991.2    0.00       7    69.3
 292    6:40   61.5    77    3.2   196      7.4   991.5    0.00      10    69.2
 292    6:50   60.3    87    1.7   156      4.9   991.5    0.00      13    69.2
 292    7:00   59.7    89    1.7    97      4.4   991.5    0.00      17    69.1
 292    7:10   59.3    89    1.8   196      4.3   991.5    0.00      25    69.0
 292    7:20   59.7    90    3.0   198      5.2   991.9    0.00      57    69.0
 292    7:30   59.9    91    1.3   137      4.4   991.9    0.00      46    69.0
 292    7:40   59.6    91    0.6    33      1.7   991.9    0.00      26    68.9
 292    7:50   59.4    91    1.2   177      3.2   991.9    0.00      28    68.9
 292    8:00   59.6    91    0.6   162      3.7   991.9    0.00      86    68.9
 292    8:10   60.6    90    3.8   188      6.4   992.2    0.00     335    68.8
 292    8:20   61.4    88    4.6   189      7.3   992.2    0.00     221    68.7
 292    8:30   61.0    89    3.4   200      6.0   992.6    0.00     123    68.7
 292    8:40   61.1    90    1.8   213      3.7   992.6    0.00     194    68.7
 292    8:50   61.4    89    2.1   230      4.5   992.2    0.00     323    68.7
 292    9:00   62.3    88    1.6   229      3.0   992.2    0.00     486    68.6
 292    9:10   63.5    85    1.8   208      4.7   992.2    0.00     516    68.6
 292    9:20   63.1    84    3.0   217      4.7   992.2    0.00     544    68.6
 292    9:30   63.2    84    2.9   211      5.1   992.2    0.00     570    68.6
 292    9:40   64.4    81    1.8   205      3.3   992.2    0.00     594    68.5
 292    9:50   65.7    77    2.1   221      3.9   992.2    0.00     618    68.5
 292   10:00   64.7    80    2.8   204      5.8   992.2    0.00     638    68.5
 292   10:10   64.6    80    4.2   212      6.6   992.2    0.00     656    68.5
 292   10:20   63.6    83    5.4   206      9.1   992.2    0.00     670    68.6
 292   10:30   64.3    81    3.9   207      7.0   992.2    0.00     687    68.6
 292   10:40   64.8    79    4.3   222      6.5   992.2    0.00     699    68.6
 292   10:50   64.4    80    4.7   217      7.6   992.6    0.00     711    68.6
 292   11:00   64.7    80    4.0   217      6.4   992.2    0.00     723    68.6
 292   11:10   65.4    79    3.4   216      6.1   992.2    0.00     732    68.6
 292   11:20   66.9    75    3.3   216      5.3   992.2    0.00     739    68.7
 292   11:30   66.9    75    4.7   211      7.7   991.9    0.00     743    68.7
 292   11:40   66.3    77    5.5   213      8.8   992.2    0.00     745    68.8
 292   11:50   65.8    78    5.0   217      7.7   991.9    0.00     747    68.8
 292   12:00   65.3    78    4.7   220      7.1   991.9    0.00     746    68.9
 292   12:10   65.7    77    4.8   218      7.2   991.9    0.00     745    68.9
 292   12:20   66.3    77    5.4   210      7.8   991.9    0.00     741    69.0
 292   12:30   67.1    76    6.1   222      9.3   991.9    0.00     734    69.1
 292   12:40   67.0    76    4.7   235     11.1   991.9    0.00     726    69.1
 292   12:50   67.0    76    5.4   219     11.3   991.9    0.00     656    69.2
 292   13:00   65.5    80    4.5   244     11.3   991.9    0.00     646    69.3
 292   13:10   65.4    79    4.7   257     10.6   991.9    0.00     615    69.4
 292   13:20   66.3    76    4.9   240      8.3   991.5    0.00     679    69.5
 292   13:30   66.7    76    5.0   242      9.0   991.5    0.00     663    69.6
 292   13:40   66.2    78    5.6   247     12.3   991.5    0.00     620    69.7
 292   13:50   64.3    82    6.6   233     11.9   991.5    0.00     598    69.8
 292   14:00   64.0    84    5.8   238     11.5   991.5    0.00     603    69.9
 292   14:10   64.6    81    5.9   219     12.4   991.2    0.00     572    70.1
 292   14:20   64.7    81    6.1   232     11.8   991.2    0.00     564    70.2
 292   14:30   64.7    81    6.0   243     11.5   991.2    0.00     520    70.3
 292   14:40   64.7    80    6.2   238     12.6   991.2    0.00     474    70.4
 292   14:50   63.6    83    4.7   235     10.7   991.2    0.00     441    70.5
 292   15:00   64.0    82    5.7   247     10.4   991.2    0.00     455    70.6
 292   15:10   65.0    79    4.8   249      9.0   990.9    0.00     427    70.8
 292   15:20   64.2    82    4.9   243      9.3   990.9    0.00     385    70.9
 292   15:30   65.0    80    4.8   232      8.5   990.9    0.00     361    71.0
 292   15:40   64.9    80    5.2   243      8.4   990.9    0.00     332    71.1
 292   15:50   65.3    77    3.9   267      7.1   990.9    0.00     292    71.2
 292   16:00   66.2    72    3.6   282      6.9   990.9    0.00     257    71.3
 292   16:10   66.6    71    4.1   275      8.4   990.9    0.00     224    71.5
 292   16:20   66.0    73    4.2   267      9.5   990.9    0.00     192    71.6
 292   16:30   65.9    74    3.2   205      8.7   990.9    0.00     160    71.7
 292   16:40   67.2    70    2.5   235      7.2   990.9    0.00     130    71.8
 292   16:50   67.0    70    2.5   295      8.0   990.9    0.00     100    71.9
 292   17:00   65.8    72    3.2   296      7.4   990.9    0.00      73    72.0
 292   17:10   65.0    74    1.8   318      6.6   990.9    0.00      48    72.1
 292   17:20   64.3    75    0.8   324      2.3   990.9    0.00      25    72.2
 292   17:30   63.6    77    0.0   347      0.8   990.9    0.00       6    72.2
 292   17:40   62.9    78    0.7    53      1.9   991.2    0.00       1    72.3
 292   17:50   62.2    78    1.1   172      2.5   991.2    0.00       0    72.4
 292   18:00   61.2    83    1.3    60      2.5   991.2    0.00       0    72.5
 292   18:10   60.7    84    0.8    12      2.2   991.2    0.00       0    72.5
 292   18:20   60.5    85    0.1    27      0.9   991.2    0.00       0    72.6
 292   18:30   60.5    85    0.6   114      2.9   991.2    0.00       0    72.6
 292   18:40   60.5    85    0.7   137      2.6   991.2    0.00       0    72.6
 292   18:50   60.6    84    0.6   107      1.6   991.2    0.00       0    72.6
 292   19:00   60.5    84    0.6   151      2.1   991.2    0.00       0    72.6
 292   19:10   60.9    83    1.1    52      3.0   991.2    0.00       0    72.6
 292   19:20   61.0    81    3.4    70      5.6   991.2    0.00       0    72.6
 292   19:30   61.1    79    3.5    79      6.0   991.5    0.00       0    72.6
 292   19:40   60.6    79    1.9    42      3.4   991.5    0.00       0    72.6
 292   19:50   61.0    78    0.4    35      2.6   991.5    0.00       0    72.6
 292   20:00   61.1    74    2.9    47      7.5   991.5    0.00       0    72.6
 292   20:10   61.5    71    5.2    36      7.2   991.5    0.00       0    72.5
 292   20:20   60.6    72    1.7    50      3.3   991.5    0.00       0    72.5
 292   20:30   61.1    79    1.0   219      3.1   991.9    0.00       0    72.5
 292   20:40   60.5    85    1.2   150      4.3   991.9    0.00       0    72.4
 292   20:50   60.2    86    1.2    29      4.5   991.9    0.00       0    72.4
 292   21:00   60.3    87    1.8    47      3.5   991.9    0.00       0    72.4
 292   21:10   60.3    86    1.3   328      3.9   991.9    0.00       0    72.3
 292   21:20   60.1    86    2.2   310      5.7   991.9    0.00       0    72.3
 292   21:30   60.1    87    2.7    16      5.9   992.2    0.00       0    72.2
 292   21:40   60.2    86    2.2    50      5.8   992.2    0.00       0    72.2
 292   21:50   60.2    86    0.9   164      3.0   992.2    0.00       0    72.1
 292   22:00   60.1    87    1.0    92      2.8   992.2    0.00       0    72.1
 292   22:10   60.4    88    1.7    49      3.0   992.2    0.00       0    72.0
 292   22:20   60.1    88    1.5    65      3.1   992.2    0.00       0    72.0
 292   22:30   59.8    87    1.4   136      3.3   992.2    0.00       0    71.9
 292   22:40   59.7    87    0.6   133      2.6   992.2    0.00       0    71.9
 292   22:50   60.0    88    0.8    25      3.1   992.2    0.00       0    71.8
 292   23:00   60.1    88    1.1    88      2.6   992.2    0.00       0    71.7
 292   23:10   59.8    86    2.3    73      4.2   992.2    0.00       0    71.7
 292   23:20   59.9    85    2.9    72      4.6   992.2    0.00       0    71.6
 292   23:30   59.6    84    3.5    60      5.2   992.2    0.00       0    71.6
 292   23:40   59.4    83    6.0    40      8.0   992.2    0.00       0    71.5
 292   23:50   59.4    82    6.0    40      8.0   992.2    0.00       0    71.5
 293    0:00   59.8    85    5.4    58      8.5   992.2    0.00       0    71.4
 293    0:10   59.9    85    3.2    80      6.1   992.2    0.00       0    71.3
 293    0:20   59.5    82    4.4    65      7.4   992.2    0.00       0    71.3
 293    0:30   59.2    82    4.1    77      6.8   992.2    0.00       0    71.2
 293    0:40   59.2    84    1.6   104      3.6   992.2    0.00       0    71.2
 293    0:50   59.6    86    2.2    88      5.0   992.6    0.00       0    71.2
 293    1:00   58.2    80    4.4    71      7.0   992.2    0.00       0    71.1
 293    1:10   58.4    80    3.3    72      5.8   992.2    0.00       0    71.0
 293    1:20   58.9    84    1.3   108      2.0   992.6    0.00       0    71.0
 293    1:30   59.1    86    0.6   121      2.3   992.6    0.00       0    71.0
 293    1:40   59.0    87    1.7    44      4.4   992.6    0.00       0    70.9
 293    1:50   58.4    84    5.1    66      9.2   992.6    0.00       0    70.9
 293    2:00   58.5    79    6.3    74     10.1   992.2    0.00       0    70.8
 293    2:10   58.2    79    4.2    52      7.5   992.2    0.00       0    70.8
 293    2:20   58.2    81    2.0    49      4.4   992.2    0.00       0    70.7
 293    2:30   59.3    82    1.2   111      3.3   992.2    0.00       0    70.7
 293    2:40   59.8    83    3.5    42      9.7   992.2    0.00       0    70.6
 293    2:50   58.7    77    6.2    60      9.1   991.9    0.00       0    70.6
 293    3:00   58.6    78    5.1    40      8.1   991.5    0.00       0    70.5
 293    3:10   59.5    77    2.5    71      6.6   991.5    0.00       0    70.5
 293    3:20   59.6    80    2.6   120      5.7   991.5    0.00       0    70.4
 293    3:30   59.4    83    2.5   136      6.1   991.9    0.00       0    70.3
 293    3:40   59.1    84    2.1   110      4.9   991.9    0.00       0    70.3
 293    3:50   58.7    84    0.4    23      1.8   991.9    0.00       0    70.2
 293    4:00   58.4    82    0.8     1      2.2   992.2    0.00       0    70.2
 293    4:10   58.9    83    1.0    86      2.3   992.2    0.00       0    70.1
 293    4:20   59.1    84    4.9    60      8.0   992.2    0.00       0    70.1
 293    4:30   58.9    83    5.6    68      7.5   992.6    0.00       0    70.0

Return to Whale Point graphs page.


Western Regional Climate Center,wrcc@dri.edu